Flight Track Log - Related Links

Times and Time Zones

All times are in EDT time to prevent confusion due to time zone crossing. See the N957AN flight status page for this flight to view local times or setup timezone preferences in your user account.


Time Position Orientation Groundspeed Altitude Reporting Facility
EDT Latitude Longitude Course Direction KTS MPH feet Rate Location/Type
Wed 10:09:40 AM 32.8667 -97.0500 295° West 165 190 2,000  Level Dallas / Fort Worth TRACON
Wed 10:10:34 AM 32.8167 -97.0500 180° South 208 239 3,400 2,050 Climbing Dallas / Fort Worth TRACON
Wed 10:11:00 AM 32.6833 -97.2132 270° West  Level FlightAware Approximate
Wed 10:11:40 AM 32.7667 -97.1000 220° Southwest 254 292 6,100  Level Dallas / Fort Worth TRACON
Wed 10:12:00 AM 32.7178 -97.3322 293° West  Level FlightAware Approximate
Wed 10:13:00 AM 32.7608 -97.4505 293° West  Level FlightAware Approximate
Wed 10:13:27 AM 32.7936 -97.2503 282° West 263 303 10,200  Level Fort Worth Center
Wed 10:14:00 AM 32.8057 -97.5679 295° West  Level FlightAware Approximate
Wed 10:14:27 AM 32.8103 -97.3614 280° West 297 342 11,300  Level Fort Worth Center
Wed 10:15:27 AM 32.8272 -97.4678 281° West 345 397 12,600 1,550 Climbing Fort Worth Center
Wed 10:16:27 AM 32.8458 -97.6014 279° West 378 435 14,400 2,450 Climbing Fort Worth Center
Wed 10:17:27 AM 32.8642 -97.7375 279° West 404 465 17,500 2,650 Climbing Fort Worth Center
Wed 10:18:27 AM 32.8639 -97.8586 270° West 409 471 19,700 2,250 Climbing Fort Worth Center
Wed 10:19:27 AM 32.8633 -98.0119 270° West 414 476 22,000 2,050 Climbing Fort Worth Center
Wed 10:20:27 AM 32.8625 -98.1406 270° West 424 488 23,800 1,750 Climbing Fort Worth Center
Wed 10:21:27 AM 32.8617 -98.2839 270° West 434 499 25,500 1,550 Climbing Fort Worth Center
Wed 10:22:27 AM 32.8772 -98.4300 277° West 440 506 26,900 1,650 Climbing Fort Worth Center
Wed 10:23:27 AM 32.9133 -98.5839 286° West 440 506 28,800 1,650 Climbing Fort Worth Center
Wed 10:24:27 AM 32.9475 -98.7281 286° West 450 518 30,200 1,800 Climbing Fort Worth Center
Wed 10:25:27 AM 32.9814 -98.8697 286° West 455 524 32,400 1,950 Climbing Fort Worth Center
Wed 10:26:27 AM 33.0131 -99.0039 286° West 443 510 34,100 1,850 Climbing Fort Worth Center
Wed 10:27:27 AM 33.0428 -99.1283 286° West 416 479 36,100 1,000 Climbing Fort Worth Center
Wed 10:28:27 AM 33.0703 -99.2503 285° West 397 457 36,100  Level Fort Worth Center
Wed 10:29:27 AM 33.0997 -99.3725 286° West 385 443 36,100  Level Fort Worth Center
Wed 10:30:27 AM 33.1272 -99.4922 285° West 385 443 36,100  Level Fort Worth Center
Wed 10:31:27 AM 33.1542 -99.6144 285° West 380 437 36,100  Level Fort Worth Center
Wed 10:32:27 AM 33.1833 -99.7392 286° West 380 437 36,100  Level Fort Worth Center
Wed 10:33:27 AM 33.2103 -99.8614 285° West 380 437 36,100  Level Fort Worth Center
Wed 10:34:27 AM 33.2369 -99.9814 285° West 380 437 36,100  Level Fort Worth Center
Wed 10:35:27 AM 33.2636 -100.1039 285° West 380 437 36,100  Level Fort Worth Center
Wed 10:36:27 AM 33.2922 -100.2242 286° West 380 437 36,100  Level Fort Worth Center
Wed 10:37:27 AM 33.3167 -100.3442 284° West 380 437 36,100  Level Fort Worth Center
Wed 10:38:27 AM 33.3431 -100.4644 285° West 380 437 36,100  Level Fort Worth Center
Wed 10:39:27 AM 33.3714 -100.5847 286° West 374 430 36,100  Level Fort Worth Center
Wed 10:40:27 AM 33.3975 -100.7028 285° West 374 430 36,100  Level Fort Worth Center
Wed 10:41:27 AM 33.4236 -100.8206 285° West 374 430 36,100  Level Fort Worth Center
Wed 10:42:27 AM 33.4494 -100.9386 285° West 374 430 36,100  Level Fort Worth Center
Wed 10:43:27 AM 33.4756 -101.0542 285° West 374 430 36,100  Level Fort Worth Center
Wed 10:44:27 AM 33.4972 -101.1622 284° West 374 430 36,100  Level Fort Worth Center
Wed 10:45:27 AM 33.5247 -101.2906 284° West 369 425 36,100  Level Fort Worth Center
Wed 10:46:27 AM 33.5464 -101.3986 284° West 369 425 36,100  Level Fort Worth Center
Wed 10:47:27 AM 33.5736 -101.5269 284° West 369 425 36,100  Level Fort Worth Center
Wed 10:48:27 AM 33.5931 -101.6325 282° West 369 425 36,100  Level Fort Worth Center
Wed 10:49:27 AM 33.6239 -101.7639 286° West 374 430 36,100  Level Fort Worth Center
Wed 10:50:27 AM 33.6472 -101.8747 284° West 379 436 36,100  Level Fort Worth Center
Wed 10:51:27 AM 33.6714 -102.0106 282° West 374 430 36,100  Level Fort Worth Center
Wed 10:52:27 AM 33.6944 -102.1242 284° West 369 425 36,100  Level Fort Worth Center
Wed 10:53:27 AM 33.7189 -102.2453 284° West 364 419 36,100  Level Fort Worth Center
Wed 10:54:27 AM 33.7439 -102.3592 285° West 359 413 36,100  Level Fort Worth Center
Wed 10:55:27 AM 33.7661 -102.4803 282° West 359 413 36,100  Level Fort Worth Center
Wed 10:57:43 AM 33.8175 -102.7222 284° West 363 418 36,100  Level Albuquerque Center
Wed 10:58:45 AM 33.8464 -102.8656 284° West 367 422 36,100  Level Albuquerque Center
Wed 10:59:47 AM 33.8689 -102.9833 283° West 364 419 36,100  Level Albuquerque Center
Wed 11:00:49 AM 33.8931 -103.1003 284° West 362 417 36,100  Level Albuquerque Center
Wed 11:01:51 AM 33.9172 -103.2178 284° West 362 417 36,100  Level Albuquerque Center
Wed 11:02:52 AM 33.9397 -103.3392 283° West 368 423 36,100  Level Albuquerque Center
Wed 11:03:54 AM 33.9617 -103.4608 282° West 372 428 36,100  Level Albuquerque Center
Wed 11:04:56 AM 33.9844 -103.5806 283° West 369 425 36,100  Level Albuquerque Center
Wed 11:05:58 AM 34.0103 -103.7178 283° West 366 421 36,100  Level Albuquerque Center
Wed 11:07:00 AM 34.0336 -103.8397 283° West 368 423 36,100  Level Albuquerque Center
Wed 11:08:02 AM 34.0567 -103.9642 283° West 373 429 36,100  Level Albuquerque Center
Wed 11:09:03 AM 34.0794 -104.0881 283° West 374 430 36,100  Level Albuquerque Center
Wed 11:10:05 AM 34.1069 -104.2300 283° West 369 425 36,100  Level Albuquerque Center
Wed 11:11:07 AM 34.1300 -104.3525 283° West 368 423 36,100  Level Albuquerque Center
Wed 11:12:09 AM 34.1511 -104.4733 282° West 367 422 36,100  Level Albuquerque Center
Wed 11:13:11 AM 34.1736 -104.5939 283° West 366 421 36,100  Level Albuquerque Center
Wed 11:14:13 AM 34.1967 -104.7153 283° West 366 421 36,100  Level Albuquerque Center
Wed 11:15:15 AM 34.2197 -104.8417 282° West 374 430 36,100  Level Albuquerque Center
Wed 11:16:17 AM 34.2414 -104.9683 282° West 379 436 36,100  Level Albuquerque Center
Wed 11:17:19 AM 34.2653 -105.0967 283° West 383 441 36,100 -48 Level Albuquerque Center
Wed 11:18:21 AM 34.2867 -105.2244 281° West 385 443 36,000  Descending Albuquerque Center
Wed 11:19:23 AM 34.3136 -105.3692 283° West 376 433 36,100 48 Climbing Albuquerque Center
Wed 11:20:25 AM 34.3358 -105.4939 282° West 375 432 36,100  Level Albuquerque Center
Wed 11:21:27 AM 34.3561 -105.6167 281° West 372 428 36,100  Level Albuquerque Center
Wed 11:22:29 AM 34.3731 -105.7403 279° West 370 426 36,100  Level Albuquerque Center
Wed 11:23:31 AM 34.3797 -105.8683 274° West 376 433 36,100  Level Albuquerque Center
Wed 11:24:33 AM 34.3883 -105.9978 275° West 380 437 36,100  Level Albuquerque Center
Wed 11:25:35 AM 34.3961 -106.1269 274° West 381 438 36,100  Level Albuquerque Center
Wed 11:26:37 AM 34.4022 -106.2483 274° West 378 435 36,100  Level Albuquerque Center
Wed 11:27:38 AM 34.4125 -106.3997 275° West 376 433 36,100  Level Albuquerque Center
Wed 11:28:40 AM 34.4194 -106.5242 274° West 372 428 36,100 -48 Level Albuquerque Center
Wed 11:29:42 AM 34.4256 -106.6514 273° West 393 452 36,000 -48 Descending Albuquerque Center
Wed 11:30:44 AM 34.4344 -106.7664 275° West 362 417 36,000 48 Level Albuquerque Center
Wed 11:31:46 AM 34.4414 -106.8922 274° West 367 422 36,100 48 Climbing Albuquerque Center
Wed 11:32:48 AM 34.4489 -107.0183 274° West 372 428 36,100  Level Albuquerque Center
Wed 11:33:50 AM 34.4553 -107.1419 274° West 369 425 36,100 -49 Level Albuquerque Center
Wed 11:34:51 AM 34.4622 -107.2650 274° West 366 421 36,000  Descending Albuquerque Center
Wed 11:35:53 AM 34.4706 -107.4142 274° West 368 423 36,100  Climbing Albuquerque Center
Wed 11:36:55 AM 34.4758 -107.5361 273° West 363 418 36,000  Descending Albuquerque Center
Wed 11:37:57 AM 34.4836 -107.6608 274° West 369 425 36,100 48 Climbing Albuquerque Center
Wed 11:38:59 AM 34.4892 -107.7833 273° West 364 419 36,100  Level Albuquerque Center
Wed 11:40:00 AM 34.4947 -107.9072 273° West 367 422 36,100  Level Albuquerque Center
Wed 11:41:02 AM 34.5014 -108.0303 274° West 366 421 36,100  Level Albuquerque Center
Wed 11:42:04 AM 34.5053 -108.1553 272° West 370 426 36,100  Level Albuquerque Center
Wed 11:43:06 AM 34.5094 -108.2792 272° West 369 425 36,100  Level Albuquerque Center
Wed 11:44:08 AM 34.5139 -108.4294 272° West 371 427 36,100  Level Albuquerque Center
Wed 11:45:09 AM 34.5181 -108.5519 272° West 375 432 36,100 -49 Level Albuquerque Center
Wed 11:46:11 AM 34.5225 -108.6919 272° West 374 430 36,000  Descending Albuquerque Center
Wed 11:47:13 AM 34.5250 -108.8103 272° West 370 426 36,100 48 Climbing Albuquerque Center
Wed 11:48:15 AM 34.5289 -108.9297 272° West 370 426 36,100  Level Albuquerque Center
Wed 11:49:16 AM 34.5325 -109.0700 272° West 371 427 36,100  Level Albuquerque Center
Wed 11:50:18 AM 34.5356 -109.1897 272° West 371 427 36,100  Level Albuquerque Center
Wed 11:51:20 AM 34.5383 -109.3275 271° West 369 425 36,100  Level Albuquerque Center
Wed 11:52:22 AM 34.5414 -109.4467 272° West 369 425 36,100 -49 Level Albuquerque Center
Wed 11:53:23 AM 34.5447 -109.5869 272° West 370 426 36,000  Descending Albuquerque Center
Wed 11:54:25 AM 34.5467 -109.7050 271° West 369 425 36,100  Climbing Albuquerque Center
Wed 11:55:27 AM 34.5500 -109.8228 272° West 367 422 36,000  Descending Albuquerque Center
Wed 11:56:29 AM 34.5522 -109.9597 271° West 364 419 36,100 48 Climbing Albuquerque Center
Wed 11:57:31 AM 34.5539 -110.0800 271° West 369 425 36,100  Level Albuquerque Center
Wed 11:58:32 AM 34.5589 -110.2214 272° West 373 429 36,100  Level Albuquerque Center
Wed 11:59:34 AM 34.5617 -110.3406 272° West 371 427 36,100  Level Albuquerque Center
Wed 12:00:36 PM 34.5636 -110.4775 271° West 366 421 36,100  Level Albuquerque Center
Wed 12:01:38 PM 34.5653 -110.5933 271° West 362 417 36,100  Level Albuquerque Center
Wed 12:02:40 PM 34.5658 -110.7286 270° West 360 414 36,100  Level Albuquerque Center
Wed 12:03:42 PM 34.5625 -110.8356 268° West 358 412 36,100  Level Albuquerque Center
Wed 12:04:44 PM 34.5633 -110.9569 271° West 360 414 36,100  Level Albuquerque Center
Wed 12:05:46 PM 34.5656 -111.0781 271° West 361 415 36,100  Level Albuquerque Center
Wed 12:06:48 PM 34.5664 -111.2253 270° West 364 419 36,100 -48 Level Albuquerque Center
Wed 12:07:50 PM 34.5669 -111.3497 270° West 368 423 36,000  Descending Albuquerque Center
Wed 12:08:52 PM 34.5675 -111.4742 270° West 371 427 36,100 49 Climbing Albuquerque Center
Wed 12:09:53 PM 34.5669 -111.5992 270° West 372 428 36,100  Level Albuquerque Center
Wed 12:10:55 PM 34.5531 -111.7228 262° West 373 429 36,100  Level Albuquerque Center
Wed 12:11:57 PM 34.5397 -111.8706 264° West 371 427 36,100  Level Albuquerque Center
Wed 12:12:59 PM 34.5281 -111.9928 263° West 369 425 36,100 -48 Level Albuquerque Center
Wed 12:14:01 PM 34.5172 -112.1153 264° West 369 425 36,000  Descending Albuquerque Center
Wed 12:15:03 PM 34.5056 -112.2347 263° West 363 418 36,100 48 Climbing Albuquerque Center
Wed 12:16:05 PM 34.4933 -112.3644 264° West 360 414 36,100  Level Albuquerque Center
Wed 12:17:07 PM 34.4814 -112.4844 263° West 358 412 36,100  Level Albuquerque Center
Wed 12:18:09 PM 34.4706 -112.6044 264° West 359 413 36,100  Level Albuquerque Center
Wed 12:19:11 PM 34.4575 -112.7250 263° West 361 415 36,100  Level Albuquerque Center
Wed 12:20:13 PM 34.4436 -112.8564 263° West 361 415 36,100  Level Albuquerque Center
Wed 12:21:15 PM 34.4311 -112.9758 263° West 360 414 36,100  Level Albuquerque Center
Wed 12:22:17 PM 34.4200 -113.0969 264° West 362 417 36,100  Level Albuquerque Center
Wed 12:23:19 PM 34.4044 -113.2433 263° West 365 420 36,100  Level Albuquerque Center
Wed 12:24:21 PM 34.3911 -113.3678 263° West 370 426 36,100  Level Albuquerque Center
Wed 12:25:23 PM 34.3786 -113.4900 263° West 369 425 36,100  Level Albuquerque Center
Wed 12:26:25 PM 34.3653 -113.6117 262° West 367 422 36,100  Level Albuquerque Center
Wed 12:27:27 PM 34.3489 -113.7436 261° West 365 420 36,100  Level Albuquerque Center
Wed 12:28:30 PM 34.3356 -113.8672 263° West 367 422 36,100  Level Albuquerque Center
Wed 12:29:32 PM 34.3228 -113.9894 263° West 368 423 36,100  Level Albuquerque Center
Wed 12:30:34 PM 34.3089 -114.1122 262° West 368 423 36,100  Level Albuquerque Center
Wed 12:31:36 PM 34.2917 -114.2600 262° West 369 425 36,100  Level Albuquerque Center
Wed 12:32:38 PM 34.2786 -114.3811 263° West 367 422 36,100 -52 Level Albuquerque Center
Wed 12:33:31 PM 34.2686 -114.4808 263° West 353 406 36,000 -52 Descending Los Angeles Center
Wed 12:34:33 PM 34.2556 -114.5986 262° West 355 409 36,000  Level Los Angeles Center
Wed 12:35:35 PM 34.2406 -114.7136 261° West 350 403 36,000  Level Los Angeles Center
Wed 12:36:37 PM 34.2269 -114.8278 262° West 347 399 36,000  Level Los Angeles Center
Wed 12:37:39 PM 34.2139 -114.9450 262° West 350 403 36,000  Level Los Angeles Center
Wed 12:38:41 PM 34.1933 -115.0828 260° West 351 404 36,000  Level Los Angeles Center
Wed 12:39:43 PM 34.1747 -115.1972 259° West 350 403 36,000 -435 Level Los Angeles Center
Wed 12:40:45 PM 34.1558 -115.3117 259° West 349 402 35,100 -919 Descending Los Angeles Center
Wed 12:41:47 PM 34.1361 -115.4258 258° West 348 400 34,100 -919 Descending Los Angeles Center
Wed 12:42:49 PM 34.1172 -115.5453 259° West 359 413 33,200 -919 Descending Los Angeles Center
Wed 12:43:51 PM 34.0972 -115.6631 258° West 362 417 32,200 -1,500 Descending Los Angeles Center
Wed 12:44:53 PM 34.0725 -115.8083 258° West 368 423 30,100 -2,592 Descending Los Angeles Center
Wed 12:45:56 PM 34.0519 -115.9247 258° West 361 415 26,800 -2,736 Descending Los Angeles Center
Wed 12:46:58 PM 34.0319 -116.0419 258° West 359 413 24,400 -1,355 Descending Los Angeles Center
Wed 12:48:00 PM 34.0122 -116.1547 258° West 347 399 24,000 -194 Descending Los Angeles Center
Wed 12:49:02 PM 33.9922 -116.2672 258° West 345 397 24,000 -484 Level Los Angeles Center
Wed 12:50:04 PM 33.9692 -116.4014 258° West 343 395 23,000 -774 Descending Los Angeles Center
Wed 12:51:06 PM 33.9497 -116.5147 258° West 346 398 22,400 -1,452 Descending Los Angeles Center
Wed 12:52:08 PM 33.9300 -116.6244 258° West 339 390 20,000 -2,274 Descending Los Angeles Center
Wed 12:53:10 PM 33.9103 -116.7342 258° West 337 388 17,700 -2,371 Descending Los Angeles Center
Wed 12:54:12 PM 33.8900 -116.8439 257° West 338 389 15,100 -1,776 Descending Los Angeles Center
Wed 12:55:15 PM 33.8514 -116.9667 249° West 338 389 14,000 -864 Descending Los Angeles Center
Wed 12:56:17 PM 33.8072 -117.0522 238° Southwest 307 353 13,300 -1,306 Descending Los Angeles Center
Wed 12:57:19 PM 33.7694 -117.1358 241° Southwest 290 334 11,300 -1,839 Descending Los Angeles Center
Wed 12:58:21 PM 33.7325 -117.2219 243° Southwest 288 331 9,500 -1,548 Descending Los Angeles Center
Wed 12:59:23 PM 33.6981 -117.3097 245° Southwest 291 335 8,100 -726 Descending Los Angeles Center
Wed 01:00:25 PM 33.6531 -117.4108 242° Southwest 287 330 8,000 -145 Descending Los Angeles Center
Wed 01:01:27 PM 33.5983 -117.4811 227° Southwest 287 330 7,800 -581 Descending Los Angeles Center
Wed 01:02:29 PM 33.5483 -117.5531 230° Southwest 283 326 6,800 -857 Descending Los Angeles Center
Wed 01:03:33 PM 33.5167 -117.6500 249° West 250 288 6,000 -559 Descending Southern California TRACON
Wed 01:04:27 PM 33.5167 -117.7167 270° West 224 258 5,700 -1,053 Descending Southern California TRACON
Wed 01:05:27 PM 33.5167 -117.7833 270° West 200 230 4,000 -1,550 Descending Southern California TRACON
Wed 01:06:27 PM 33.5167 -117.8500 270° West 194 223 2,600 -1,400 Descending Southern California TRACON

Login

Don't have an account? Register now (free) for customized features, flight alerts, and more!